Time;durP1;ratioP1;P1;durP2;ratioP2;P2;SDS_P1;SDS_P2;PMS_P1;PMS_P2;Temp;Humidity;BMP_temperature;BMP_pressure;BME280_temperature;BME280_humidity;BME280_pressure;Samples;Min_cycle;Max_cycle;Signal;HPM_P1;HPM_P2
2023/04/18 00:03:04;;;;;;;3.42;0.95;;;;;;;8.59;100.00;102703.38;10353211;28;20046;-78
2023/04/18 00:08:05;;;;;;;0.47;0.35;;;;;;;8.33;100.00;102703.47;10376792;28;20061;-77
2023/04/18 00:13:07;;;;;;;0.95;0.73;;;;;;;8.17;100.00;102704.13;10392293;28;20054;-78
2023/04/18 00:18:09;;;;;;;1.10;0.88;;;;;;;8.21;100.00;102701.00;10372797;28;20052;-79
2023/04/18 00:23:12;;;;;;;0.75;0.63;;;;;;;8.08;100.00;102706.09;10356985;28;20520;-79
2023/04/18 00:28:14;;;;;;;0.43;0.38;;;;;;;8.05;100.00;102699.09;10363910;28;20044;-79
2023/04/18 00:33:16;;;;;;;1.02;0.63;;;;;;;7.86;100.00;102699.56;10361229;28;20161;-77
2023/04/18 00:38:17;;;;;;;0.80;0.45;;;;;;;7.80;100.00;102706.84;10355986;28;20099;-78
2023/04/18 00:43:23;;;;;;;0.77;0.77;;;;;;;7.74;100.00;102699.63;10371924;28;20681;-77
2023/04/18 00:48:24;;;;;;;1.08;0.75;;;;;;;7.80;100.00;102696.59;10352145;28;20049;-78
2023/04/18 00:53:28;;;;;;;0.55;0.55;;;;;;;7.73;100.00;102694.41;10345796;28;20053;-77
2023/04/18 00:58:31;;;;;;;2.03;1.48;;;;;;;7.65;100.00;102695.56;10352120;28;20053;-78
2023/04/18 01:03:33;;;;;;;2.03;0.82;;;;;;;7.73;100.00;102689.28;10359082;28;20050;-78
2023/04/18 01:08:35;;;;;;;1.35;0.68;;;;;;;7.50;100.00;102701.47;10352598;28;20042;-77
2023/04/18 01:13:36;;;;;;;0.50;0.50;;;;;;;7.44;100.00;102699.41;10362937;28;20128;-77
2023/04/18 01:18:39;;;;;;;1.77;1.23;;;;;;;7.41;100.00;102695.72;10358492;28;20477;-76
2023/04/18 01:23:41;;;;;;;5.35;1.08;;;;;;;7.33;100.00;102694.31;10352434;28;20045;-77
2023/04/18 01:28:42;;;;;;;6.47;1.50;;;;;;;7.23;100.00;102696.25;10343488;28;20053;-78
2023/04/18 01:33:44;;;;;;;0.80;0.80;;;;;;;7.15;100.00;102692.25;10348572;28;20536;-77
2023/04/18 01:38:45;;;;;;;0.63;0.63;;;;;;;7.09;100.00;102691.84;10349325;28;20132;-77
2023/04/18 01:43:47;;;;;;;2.50;0.95;;;;;;;7.15;100.00;102690.59;10349168;28;20084;-78
2023/04/18 01:48:49;;;;;;;4.03;1.40;;;;;;;7.25;100.00;102687.00;10352849;28;20057;-78
2023/04/18 01:53:53;;;;;;;1.20;1.05;;;;;;;7.06;100.00;102689.06;10353043;28;20096;-77
2023/04/18 01:58:55;;;;;;;1.45;0.57;;;;;;;6.99;100.00;102691.22;10349699;28;20130;-78
2023/04/18 02:03:56;;;;;;;1.10;0.75;;;;;;;6.92;100.00;102686.44;10353243;28;20137;-78
2023/04/18 02:08:58;;;;;;;0.75;0.40;;;;;;;6.74;100.00;102692.84;10346368;28;20050;-78
2023/04/18 02:14:00;;;;;;;0.40;0.40;;;;;;;6.73;100.00;102691.06;10366565;28;20061;-78
2023/04/18 02:19:03;;;;;;;0.17;0.17;;;;;;;6.59;100.00;102693.53;10351891;28;20531;-78
2023/04/18 02:24:04;;;;;;;1.17;0.88;;;;;;;6.58;100.00;102689.22;10342406;28;20069;-77
2023/04/18 02:29:06;;;;;;;0.63;0.30;;;;;;;6.57;100.00;102692.53;10350062;28;20096;-78
2023/04/18 02:34:07;;;;;;;0.32;0.25;;;;;;;6.44;100.00;102682.22;10349957;28;20068;-78
2023/04/18 02:39:09;;;;;;;1.00;0.88;;;;;;;6.36;100.00;102689.34;10365529;28;20034;-77
2023/04/18 02:44:10;;;;;;;2.45;0.80;;;;;;;6.44;100.00;102684.78;10348790;28;20508;-78
2023/04/18 02:49:13;;;;;;;0.77;0.47;;;;;;;6.58;100.00;102689.22;10367272;28;20046;-78
2023/04/18 02:54:15;;;;;;;2.38;1.30;;;;;;;6.60;100.00;102685.06;10349534;28;20088;-77
2023/04/18 02:59:29;;;;;;;1.50;1.13;;;;;;;6.61;100.00;102684.28;10341404;28;20049;-78
2023/04/18 03:05:03;;;;;;;0.68;0.68;;;;;;;6.69;100.00;102683.94;10349568;28;20508;-78
2023/04/18 03:10:06;;;;;;;1.20;0.47;;;;;;;6.90;100.00;102679.44;10348233;28;20058;-77
2023/04/18 03:15:11;;;;;;;0.95;0.82;;;;;;;6.91;100.00;102676.97;10382087;28;20050;-78
2023/04/18 03:20:12;;;;;;;1.40;1.08;;;;;;;6.90;100.00;102682.00;10347406;28;20069;-78
2023/04/18 03:25:14;;;;;;;0.70;0.70;;;;;;;6.78;100.00;102674.34;10352040;28;20477;-77
2023/04/18 03:30:22;;;;;;;1.02;0.90;;;;;;;6.76;100.00;102675.91;10379722;28;20046;-77
2023/04/18 03:35:27;;;;;;;0.68;0.68;;;;;;;6.84;100.00;102669.63;10348403;28;20554;-77
2023/04/18 03:40:30;;;;;;;1.00;0.40;;;;;;;6.58;100.00;102670.38;10349035;28;20050;-78
2023/04/18 03:45:38;;;;;;;0.75;0.50;;;;;;;6.79;100.00;102671.00;10348316;28;20042;-77
2023/04/18 03:50:40;;;;;;;1.50;0.77;;;;;;;6.92;100.00;102673.63;10344225;28;20112;-77
2023/04/18 03:55:43;;;;;;;0.50;0.50;;;;;;;7.10;100.00;102668.00;10343989;28;20138;-78
2023/04/18 04:00:50;;;;;;;1.63;1.00;;;;;;;6.98;100.00;102673.16;10348757;28;20046;-77
2023/04/18 04:05:53;;;;;;;2.03;1.13;;;;;;;7.08;100.00;102670.44;10342865;28;20141;-77
2023/04/18 04:10:56;;;;;;;0.00;0.00;;;;;;;7.15;100.00;102667.50;10364175;28;20068;-77
2023/04/18 04:15:58;;;;;;;1.08;0.68;;;;;;;7.25;100.00;102670.72;10354897;28;20128;-78
2023/04/18 04:21:00;;;;;;;1.00;0.55;;;;;;;7.27;100.00;102670.03;10344097;28;20061;-78
2023/04/18 04:26:13;;;;;;;0.80;0.35;;;;;;;7.19;100.00;102673.72;10352440;28;20042;-77
2023/04/18 04:31:25;;;;;;;0.57;0.45;;;;;;;7.24;100.00;102682.66;10354317;28;20054;-77
2023/04/18 04:36:27;;;;;;;2.05;1.63;;;;;;;7.19;100.00;102676.28;10370464;28;20155;-77
2023/04/18 04:41:31;;;;;;;0.55;0.55;;;;;;;7.32;100.00;102679.72;10358071;28;20046;-78
2023/04/18 04:46:34;;;;;;;2.00;1.02;;;;;;;7.26;100.00;102685.31;10351171;28;20052;-77
2023/04/18 04:51:40;;;;;;;0.75;0.75;;;;;;;7.39;100.00;102687.03;10364753;28;20104;-77
2023/04/18 04:56:41;;;;;;;1.73;0.88;;;;;;;7.39;100.00;102681.91;10352494;28;20049;-77
2023/04/18 05:01:43;;;;;;;1.52;0.85;;;;;;;7.51;100.00;102692.97;10350546;28;20042;-77
2023/04/18 05:06:45;;;;;;;0.60;0.30;;;;;;;7.72;100.00;102692.63;10354346;28;20124;-79
2023/04/18 05:11:48;;;;;;;0.80;0.73;;;;;;;7.66;100.00;102692.22;10369051;28;20057;-78
2023/04/18 05:16:49;;;;;;;1.83;0.73;;;;;;;7.92;100.00;102682.03;10371100;28;20117;-78
2023/04/18 05:21:51;;;;;;;1.65;0.90;;;;;;;7.90;100.00;102696.44;10369222;28;20513;-77
2023/04/18 05:26:52;;;;;;;1.70;0.60;;;;;;;8.06;100.00;102700.88;10349442;28;20038;-78
2023/04/18 05:31:54;;;;;;;0.77;0.43;;;;;;;8.10;100.00;102696.81;10367977;28;20488;-76
2023/04/18 05:36:55;;;;;;;1.17;1.00;;;;;;;8.21;100.00;102702.66;10369153;28;20041;-78
2023/04/18 05:41:57;;;;;;;0.88;0.73;;;;;;;8.29;100.00;102705.72;10349766;28;20132;-76
2023/04/18 05:46:58;;;;;;;1.20;0.88;;;;;;;8.53;100.00;102720.16;10373462;28;20559;-77
2023/04/18 05:52:00;;;;;;;1.98;1.00;;;;;;;8.59;100.00;102714.53;10350933;28;20049;-77
2023/04/18 05:57:02;;;;;;;0.95;0.70;;;;;;;8.53;100.00;102720.16;10347459;28;20528;-76
2023/04/18 06:02:11;;;;;;;0.60;0.40;;;;;;;8.45;100.00;102720.44;10351791;28;20084;-78
2023/04/18 06:07:13;;;;;;;2.83;1.02;;;;;;;8.81;100.00;102721.00;10349593;28;20045;-77
2023/04/18 06:12:15;;;;;;;1.65;0.90;;;;;;;8.56;100.00;102734.91;10351153;28;20492;-77
2023/04/18 06:17:16;;;;;;;0.55;0.50;;;;;;;8.76;100.00;102733.56;10364307;28;20073;-77
2023/04/18 06:22:18;;;;;;;0.88;0.30;;;;;;;8.66;100.00;102741.50;10349207;28;20046;-77
2023/04/18 06:27:19;;;;;;;0.60;0.47;;;;;;;8.72;100.00;102739.31;10333880;28;20416;-78
2023/04/18 06:32:31;;;;;;;0.28;0.20;;;;;;;9.13;100.00;102746.13;10367838;28;20046;-78
2023/04/18 06:37:33;;;;;;;1.17;0.75;;;;;;;9.42;100.00;102739.28;10356000;28;20046;-77
2023/04/18 06:42:34;;;;;;;2.10;1.05;;;;;;;9.89;100.00;102742.03;10362979;28;20129;-77
2023/04/18 06:47:37;;;;;;;0.85;0.70;;;;;;;10.30;100.00;102746.09;10350837;28;20045;-78
2023/04/18 06:52:43;;;;;;;0.77;0.68;;;;;;;10.25;100.00;102752.66;10334558;28;20046;-77
2023/04/18 06:57:44;;;;;;;0.22;0.17;;;;;;;10.33;100.00;102748.84;10368351;28;20038;-78
2023/04/18 07:02:46;;;;;;;0.35;0.30;;;;;;;10.69;100.00;102756.88;10340760;28;20046;-78
2023/04/18 07:07:48;;;;;;;0.47;0.40;;;;;;;11.29;100.00;102759.22;10370930;28;20433;-76
2023/04/18 07:12:50;;;;;;;1.58;0.43;;;;;;;10.50;100.00;102754.97;10361813;28;20129;-76
2023/04/18 07:17:51;;;;;;;0.55;0.52;;;;;;;10.60;100.00;102761.53;10353468;28;20117;-76
2023/04/18 07:22:53;;;;;;;0.85;0.65;;;;;;;10.52;100.00;102767.97;10360459;28;20416;-76
2023/04/18 07:27:54;;;;;;;0.57;0.30;;;;;;;10.55;100.00;102770.69;10372027;28;20504;-76
2023/04/18 07:32:56;;;;;;;0.35;0.32;;;;;;;11.37;100.00;102773.41;10354922;28;20512;-76
2023/04/18 07:37:57;;;;;;;0.68;0.28;;;;;;;11.40;100.00;102776.16;10336868;28;20043;-76
2023/04/18 07:42:59;;;;;;;0.70;0.30;;;;;;;11.41;100.00;102780.53;10365982;28;20045;-76
2023/04/18 07:48:01;;;;;;;0.90;0.57;;;;;;;11.82;100.00;102769.66;10361578;28;20052;-76
2023/04/18 07:53:02;;;;;;;1.20;0.77;;;;;;;11.55;100.00;102780.34;10380378;28;20056;-76
2023/04/18 07:58:04;;;;;;;0.55;0.40;;;;;;;10.44;100.00;102790.69;10384745;28;20048;-77
2023/04/18 08:03:06;;;;;;;0.10;0.10;;;;;;;10.54;100.00;102797.25;10388382;28;20460;-78
2023/04/18 08:08:10;;;;;;;0.20;0.20;;;;;;;10.53;100.00;102805.81;10391291;28;20048;-79
2023/04/18 08:13:14;;;;;;;0.77;0.25;;;;;;;10.79;100.00;102812.44;10392879;28;20057;-78
2023/04/18 08:18:15;;;;;;;1.35;0.90;;;;;;;10.99;100.00;102804.91;10375262;28;20044;-78
2023/04/18 08:23:17;;;;;;;0.63;0.63;;;;;;;10.40;100.00;102815.41;10371144;28;20046;-78
2023/04/18 08:28:18;;;;;;;0.90;0.38;;;;;;;10.83;100.00;102816.94;10374663;28;20154;-78
2023/04/18 08:33:21;;;;;;;0.13;0.13;;;;;;;10.32;100.00;102821.78;10385332;28;20500;-79
2023/04/18 08:38:22;;;;;;;1.75;0.88;;;;;;;10.93;100.00;102818.34;10376465;28;20045;-76
2023/04/18 08:43:24;;;;;;;1.00;0.85;;;;;;;11.13;100.00;102813.41;10387334;28;20366;-79
2023/04/18 08:48:27;;;;;;;0.45;0.40;;;;;;;10.73;100.00;102818.13;10387881;28;20038;-77
2023/04/18 08:53:31;;;;;;;1.10;0.60;;;;;;;11.66;100.00;102815.34;10382745;28;20089;-77
2023/04/18 08:58:33;;;;;;;0.43;0.40;;;;;;;11.45;100.00;102822.88;10375175;28;20077;-76
2023/04/18 09:03:36;;;;;;;0.40;0.38;;;;;;;11.42;100.00;102821.03;10388024;28;20112;-77
2023/04/18 09:08:41;;;;;;;0.43;0.30;;;;;;;11.72;100.00;102828.59;10390595;28;20048;-77
2023/04/18 09:13:45;;;;;;;0.47;0.45;;;;;;;11.24;100.00;102827.75;10387875;28;20455;-77
2023/04/18 09:19:12;;;;;;;0.43;0.38;;;;;;;11.82;100.00;102813.56;10382933;28;20584;-77
2023/04/18 09:24:19;;;;;;;1.13;1.05;;;;;;;11.33;100.00;102815.38;10390752;28;20050;-79
2023/04/18 09:29:44;;;;;;;0.57;0.57;;;;;;;11.99;100.00;102802.44;10391538;28;20046;-77
2023/04/18 09:34:46;;;;;;;0.40;0.30;;;;;;;11.67;100.00;102804.22;10383495;28;20099;-77
2023/04/18 09:39:49;;;;;;;0.38;0.22;;;;;;;11.94;100.00;102802.97;10390977;28;20045;-77
2023/04/18 09:45:00;;;;;;;1.40;0.73;;;;;;;11.87;100.00;102809.53;10363078;28;20037;-77
2023/04/18 09:50:07;;;;;;;0.80;0.77;;;;;;;11.63;100.00;102804.88;10370485;28;20042;-77
2023/04/18 09:55:11;;;;;;;1.90;0.93;;;;;;;11.61;100.00;102800.44;10375373;28;20163;-79
2023/04/18 10:00:26;;;;;;;0.47;0.47;;;;;;;11.52;100.00;102801.75;10374970;28;20459;-77
2023/04/18 10:05:30;;;;;;;1.55;0.73;;;;;;;11.97;100.00;102791.13;10374905;28;20099;-78
2023/04/18 10:10:32;;;;;;;0.47;0.38;;;;;;;12.51;100.00;102796.34;10356992;28;20053;-78
2023/04/18 10:15:34;;;;;;;0.50;0.20;;;;;;;12.67;100.00;102792.81;10365620;28;20046;-77
2023/04/18 10:20:36;;;;;;;0.47;0.35;;;;;;;11.73;100.00;102795.91;10385429;28;20045;-77
2023/04/18 10:25:37;;;;;;;0.50;0.40;;;;;;;12.37;100.00;102784.47;10378521;28;20104;-79
2023/04/18 10:30:41;;;;;;;3.67;1.17;;;;;;;12.34;100.00;102780.03;10383808;28;20936;-78
2023/04/18 10:35:59;;;;;;;1.15;0.52;;;;;;;14.03;100.00;102772.09;10343668;28;20576;-77
2023/04/18 10:41:31;;;;;;;0.57;0.40;;;;;;;13.30;100.00;102771.53;10372696;28;20047;-78
2023/04/18 10:46:37;;;;;;;0.08;0.05;;;;;;;13.88;100.00;102763.66;10350930;28;20046;-77
2023/04/18 10:51:39;;;;;;;0.73;0.52;;;;;;;14.09;100.00;102761.09;10368373;28;20076;-77
2023/04/18 10:56:51;;;;;;;1.45;0.85;;;;;;;13.69;100.00;102768.09;10388872;28;20121;-77
2023/04/18 11:02:03;;;;;;;1.70;0.95;;;;;;;13.89;100.00;102758.53;10371046;28;20044;-76
2023/04/18 11:07:05;;;;;;;0.82;0.82;;;;;;;13.00;100.00;102765.88;10378422;28;20048;-76
2023/04/18 11:12:09;;;;;;;0.70;0.52;;;;;;;13.49;100.00;102756.84;10389230;28;20076;-77
2023/04/18 11:17:17;;;;;;;1.58;1.08;;;;;;;13.31;100.00;102746.56;10383472;28;20034;-77
2023/04/18 11:22:18;;;;;;;0.50;0.50;;;;;;;13.10;100.00;102747.38;10387680;28;20116;-77
2023/04/18 11:27:24;;;;;;;1.30;1.15;;;;;;;13.27;100.00;102739.44;10387253;28;20496;-76
2023/04/18 11:32:26;;;;;;;0.55;0.32;;;;;;;15.00;100.00;102735.25;10386169;28;20103;-77
2023/04/18 11:37:28;;;;;;;2.05;0.80;;;;;;;14.34;100.00;102736.16;10366866;28;20050;-76
2023/04/18 11:42:31;;;;;;;4.55;1.75;;;;;;;14.43;100.00;102731.31;10375527;28;20575;-78
2023/04/18 11:47:33;;;;;;;1.23;0.80;;;;;;;14.41;100.00;102732.97;10351135;28;20049;-76
2023/04/18 11:52:36;;;;;;;1.60;0.45;;;;;;;13.19;100.00;102731.34;10370558;28;20180;-76
2023/04/18 11:57:38;;;;;;;1.55;1.05;;;;;;;15.68;100.00;102716.84;10350158;28;20424;-77
2023/04/18 12:02:44;;;;;;;1.25;0.80;;;;;;;15.38;100.00;102714.94;10365807;28;20052;-77
2023/04/18 12:07:46;;;;;;;0.70;0.63;;;;;;;15.23;100.00;102718.78;10374994;28;20519;-77
2023/04/18 12:12:49;;;;;;;0.70;0.60;;;;;;;16.68;100.00;102706.13;10384622;28;20038;-77
2023/04/18 12:17:55;;;;;;;3.92;2.10;;;;;;;16.20;100.00;102709.00;10357384;28;20277;-77
2023/04/18 12:22:57;;;;;;;1.05;0.95;;;;;;;15.18;100.00;102717.72;10388268;28;20057;-76
2023/04/18 12:28:13;;;;;;;1.02;0.50;;;;;;;14.55;100.00;102733.53;10371119;28;20530;-79
2023/04/18 12:33:14;;;;;;;0.95;0.65;;;;;;;14.57;100.00;102719.78;10373275;28;20092;-77
2023/04/18 12:38:19;;;;;;;2.60;1.20;;;;;;;15.11;100.00;102723.53;10383251;28;20141;-77
2023/04/18 12:43:20;;;;;;;1.35;0.63;;;;;;;16.30;100.00;102706.75;10395063;28;20523;-77
2023/04/18 12:48:22;;;;;;;1.20;0.90;;;;;;;14.87;100.00;102719.19;10350375;28;20152;-77
2023/04/18 12:53:24;;;;;;;1.00;0.90;;;;;;;15.73;100.00;102704.91;10365264;28;20317;-78
2023/04/18 12:58:25;;;;;;;3.50;0.52;;;;;;;15.78;100.00;102703.31;10397325;28;20125;-77
2023/04/18 13:03:27;;;;;;;0.77;0.50;;;;;;;16.34;100.00;102710.34;10387661;28;20503;-78
2023/04/18 13:08:29;;;;;;;1.27;0.57;;;;;;;16.75;100.00;102700.28;10391517;28;20500;-78
2023/04/18 13:13:30;;;;;;;1.20;0.68;;;;;;;16.21;100.00;102705.56;10377914;28;20067;-78
2023/04/18 13:18:35;;;;;;;0.57;0.47;;;;;;;15.51;100.00;102701.59;10383570;28;20072;-78
2023/04/18 13:23:36;;;;;;;1.30;0.82;;;;;;;16.25;100.00;102700.50;10381285;28;20150;-77
2023/04/18 13:28:38;;;;;;;1.02;0.60;;;;;;;15.45;100.00;102708.25;10369372;28;20141;-78
2023/04/18 13:33:39;;;;;;;1.48;0.95;;;;;;;15.13;100.00;102719.28;10354389;28;20133;-77
2023/04/18 13:38:41;;;;;;;2.17;0.95;;;;;;;16.18;100.00;102699.47;10350892;28;20129;-78
2023/04/18 13:43:42;;;;;;;1.38;1.27;;;;;;;15.58;100.00;102704.38;10327687;28;20053;-80
2023/04/18 13:48:44;;;;;;;2.38;0.90;;;;;;;14.75;100.00;102708.38;10371492;28;20048;-78
2023/04/18 13:53:45;;;;;;;1.05;0.47;;;;;;;15.19;100.00;102706.53;10377584;28;20041;-78
2023/04/18 13:58:47;;;;;;;0.73;0.52;;;;;;;15.04;100.00;102700.78;10362207;28;20045;-79
2023/04/18 14:03:48;;;;;;;1.00;0.40;;;;;;;15.25;100.00;102700.69;10377375;28;20045;-77
2023/04/18 14:08:50;;;;;;;0.45;0.43;;;;;;;15.04;100.00;102695.59;10362938;28;20041;-78
2023/04/18 14:13:52;;;;;;;0.63;0.57;;;;;;;15.41;100.00;102696.88;10376750;28;20120;-77
2023/04/18 14:18:53;;;;;;;3.58;0.77;;;;;;;16.97;100.00;102674.88;10356535;28;20373;-79
2023/04/18 14:23:55;;;;;;;1.67;1.00;;;;;;;15.62;100.00;102693.25;10351697;28;20056;-79
2023/04/18 14:28:56;;;;;;;0.63;0.47;;;;;;;16.06;100.00;102669.59;10364068;28;20041;-79
2023/04/18 14:33:58;;;;;;;0.82;0.55;;;;;;;16.96;100.00;102674.00;10362138;28;20129;-79
2023/04/18 14:39:00;;;;;;;1.13;0.80;;;;;;;16.72;100.00;102676.75;10384933;28;20060;-79
2023/04/18 14:44:02;;;;;;;1.60;0.75;;;;;;;15.83;100.00;102674.94;10363755;28;20037;-79
2023/04/18 14:49:04;;;;;;;0.90;0.88;;;;;;;15.53;100.00;102673.03;10382528;28;20048;-79
2023/04/18 14:54:05;;;;;;;0.57;0.57;;;;;;;15.13;100.00;102675.16;10385337;28;20133;-79
2023/04/18 14:59:07;;;;;;;0.52;0.47;;;;;;;15.51;100.00;102661.72;10386275;28;20477;-78
2023/04/18 15:04:09;;;;;;;0.38;0.30;;;;;;;16.05;100.00;102660.88;10369301;28;20055;-80
2023/04/18 15:09:12;;;;;;;1.10;0.95;;;;;;;15.64;100.00;102652.63;10366027;28;20054;-78
2023/04/18 15:14:13;;;;;;;1.05;0.70;;;;;;;15.61;100.00;102658.59;10362590;28;20080;-78
2023/04/18 15:19:15;;;;;;;0.20;0.20;;;;;;;16.01;100.00;102654.69;10371213;28;20069;-80
2023/04/18 15:24:17;;;;;;;0.50;0.30;;;;;;;16.04;100.00;102651.34;10362446;28;20038;-80
2023/04/18 15:29:19;;;;;;;0.32;0.25;;;;;;;16.26;100.00;102647.66;10367422;28;20507;-80
2023/04/18 15:34:21;;;;;;;0.20;0.20;;;;;;;16.58;100.00;102646.84;10373200;28;20145;-79
2023/04/18 15:39:22;;;;;;;0.52;0.40;;;;;;;16.46;100.00;102648.28;10363170;28;20088;-79
2023/04/18 15:44:25;;;;;;;0.65;0.32;;;;;;;16.62;100.00;102635.72;10369121;28;20042;-79
2023/04/18 15:49:26;;;;;;;0.65;0.45;;;;;;;15.49;100.00;102646.09;10363966;28;20140;-79
2023/04/18 15:54:28;;;;;;;0.70;0.55;;;;;;;15.93;100.00;102639.72;10372607;28;20042;-80
2023/04/18 15:59:29;;;;;;;1.10;0.57;;;;;;;16.32;100.00;102644.38;10342688;28;20105;-79
2023/04/18 16:04:32;;;;;;;1.00;0.40;;;;;;;16.30;100.00;102643.44;10367223;28;20050;-79
2023/04/18 16:09:33;;;;;;;0.50;0.50;;;;;;;16.27;100.00;102638.16;10362709;28;20061;-78
2023/04/18 16:14:35;;;;;;;0.38;0.25;;;;;;;16.50;100.00;102634.50;10372237;28;20431;-79
2023/04/18 16:19:39;;;;;;;1.98;0.70;;;;;;;15.97;100.00;102636.41;10358933;28;20042;-79
2023/04/18 16:24:41;;;;;;;1.48;0.75;;;;;;;16.15;100.00;102629.16;10377281;28;20049;-79
2023/04/18 16:29:43;;;;;;;1.20;0.75;;;;;;;16.13;100.00;102633.41;10354777;28;20125;-80
2023/04/18 16:34:45;;;;;;;0.35;0.35;;;;;;;15.52;100.00;102638.41;10370370;28;20133;-80
2023/04/18 16:39:46;;;;;;;0.75;0.75;;;;;;;15.66;100.00;102635.38;10369066;28;20540;-79
2023/04/18 16:44:47;;;;;;;0.77;0.50;;;;;;;15.70;100.00;102638.13;10375917;28;20045;-79
2023/04/18 16:49:50;;;;;;;0.47;0.40;;;;;;;15.92;100.00;102632.75;10383626;28;20042;-79
2023/04/18 16:54:51;;;;;;;1.80;0.30;;;;;;;16.18;100.00;102631.84;10360694;28;20053;-80
2023/04/18 16:59:53;;;;;;;1.65;0.85;;;;;;;15.57;100.00;102625.53;10357435;28;20107;-79
2023/04/18 17:04:54;;;;;;;0.30;0.30;;;;;;;15.75;100.00;102635.66;10350508;28;20493;-78
2023/04/18 17:09:56;;;;;;;1.08;0.50;;;;;;;15.73;100.00;102633.84;10360914;28;20100;-78
2023/04/18 17:14:58;;;;;;;1.23;0.85;;;;;;;15.85;100.00;102632.56;10373387;28;20041;-79
2023/04/18 17:20:00;;;;;;;0.32;0.32;;;;;;;15.90;100.00;102630.09;10365977;28;20042;-79
2023/04/18 17:25:02;;;;;;;2.25;1.17;;;;;;;15.28;100.00;102633.25;10363222;28;20124;-78
2023/04/18 17:30:03;;;;;;;0.65;0.40;;;;;;;15.23;100.00;102632.22;10369664;28;20045;-78
2023/04/18 17:35:05;;;;;;;0.85;0.35;;;;;;;15.14;100.00;102643.19;10367162;28;20124;-79
2023/04/18 17:40:08;;;;;;;0.30;0.20;;;;;;;15.32;100.00;102644.63;10390869;28;20423;-79
2023/04/18 17:45:13;;;;;;;0.30;0.28;;;;;;;14.82;100.00;102653.28;10350359;28;20056;-78
2023/04/18 17:50:14;;;;;;;0.98;0.63;;;;;;;14.79;100.00;102655.75;10364796;28;20048;-79
2023/04/18 17:55:16;;;;;;;0.85;0.38;;;;;;;14.35;100.00;102661.03;10383924;28;20148;-80
2023/04/18 18:00:17;;;;;;;0.55;0.40;;;;;;;14.18;100.00;102662.97;10363373;28;20055;-79
2023/04/18 18:05:19;;;;;;;1.02;0.60;;;;;;;13.87;100.00;102656.56;10366675;28;20087;-79
2023/04/18 18:10:22;;;;;;;1.77;0.85;;;;;;;13.56;100.00;102665.66;10368425;28;20046;-79
2023/04/18 18:15:24;;;;;;;5.50;0.70;;;;;;;13.50;100.00;102670.59;10367798;28;20052;-79
2023/04/18 18:20:26;;;;;;;1.55;1.00;;;;;;;13.44;100.00;102670.34;10376486;28;20121;-79
2023/04/18 18:25:27;;;;;;;0.50;0.30;;;;;;;13.14;100.00;102674.22;10343687;28;20065;-79
2023/04/18 18:30:29;;;;;;;2.20;1.08;;;;;;;12.43;100.00;102688.25;10350005;28;20045;-78
2023/04/18 18:35:31;;;;;;;0.38;0.38;;;;;;;12.31;100.00;102688.53;10357081;28;20050;-79
2023/04/18 18:40:33;;;;;;;1.65;1.17;;;;;;;12.56;100.00;102688.00;10368157;28;20113;-81
2023/04/18 18:45:34;;;;;;;0.70;0.65;;;;;;;12.60;100.00;102696.78;10378178;28;20044;-79
2023/04/18 18:50:36;;;;;;;0.57;0.57;;;;;;;12.24;100.00;102710.66;10367697;28;20038;-79
2023/04/18 18:55:37;;;;;;;0.30;0.30;;;;;;;12.06;100.00;102714.09;10367113;28;20136;-78
2023/04/18 19:00:38;;;;;;;0.20;0.20;;;;;;;12.26;100.00;102726.22;10349445;28;20046;-79
2023/04/18 19:05:40;;;;;;;0.70;0.45;;;;;;;11.97;100.00;102730.84;10367758;28;20125;-79
2023/04/18 19:10:42;;;;;;;1.15;0.68;;;;;;;11.90;100.00;102738.25;10365960;28;20068;-79
2023/04/18 19:15:43;;;;;;;0.65;0.35;;;;;;;11.94;100.00;102730.66;10366030;28;20136;-78
2023/04/18 19:20:45;;;;;;;1.02;0.30;;;;;;;12.00;100.00;102734.47;10381554;28;20042;-79
2023/04/18 19:25:47;;;;;;;0.65;0.57;;;;;;;11.87;100.00;102732.94;10348403;28;20062;-78
2023/04/18 19:30:48;;;;;;;0.32;0.22;;;;;;;11.79;100.00;102738.53;10343794;28;20497;-78
2023/04/18 19:35:50;;;;;;;0.38;0.20;;;;;;;11.75;100.00;102746.13;10365832;28;20065;-78
2023/04/18 19:40:51;;;;;;;0.73;0.50;;;;;;;11.78;100.00;102747.09;10367867;28;20046;-78
2023/04/18 19:45:53;;;;;;;0.82;0.43;;;;;;;11.63;100.00;102753.25;10373254;28;20140;-79
2023/04/18 19:50:55;;;;;;;1.20;0.95;;;;;;;11.58;100.00;102757.25;10356713;28;20048;-78
2023/04/18 19:55:57;;;;;;;0.50;0.38;;;;;;;11.32;100.00;102761.97;10355122;28;20041;-79
2023/04/18 20:00:58;;;;;;;1.17;0.60;;;;;;;11.34;100.00;102768.09;10374198;28;20046;-79
2023/04/18 20:06:00;;;;;;;1.13;0.60;;;;;;;11.29;100.00;102772.13;10368956;28;20053;-78
2023/04/18 20:11:05;;;;;;;1.48;0.55;;;;;;;11.14;100.00;102771.31;10356492;28;20117;-79
2023/04/18 20:16:07;;;;;;;0.70;0.35;;;;;;;10.83;100.00;102769.66;10356046;28;20073;-78
2023/04/18 20:21:09;;;;;;;0.73;0.47;;;;;;;10.78;100.00;102772.00;10367707;28;20567;-79
2023/04/18 20:26:11;;;;;;;0.20;0.15;;;;;;;10.72;100.00;102777.69;10371202;28;20054;-79
2023/04/18 20:31:12;;;;;;;2.72;0.95;;;;;;;10.60;100.00;102787.31;10356823;28;20140;-78
2023/04/18 20:36:16;;;;;;;0.65;0.35;;;;;;;10.63;100.00;102782.31;10370970;28;20523;-79
2023/04/18 20:41:19;;;;;;;2.65;1.20;;;;;;;10.66;100.00;102787.66;10372717;28;20117;-79
2023/04/18 20:46:21;;;;;;;0.70;0.30;;;;;;;10.64;100.00;102794.41;10354425;28;20080;-78
2023/04/18 20:51:22;;;;;;;0.60;0.45;;;;;;;10.45;100.00;102803.69;10366776;28;20080;-80
2023/04/18 20:56:24;;;;;;;0.60;0.50;;;;;;;10.35;100.00;102800.47;10361224;28;20133;-78
2023/04/18 21:01:25;;;;;;;2.05;0.50;;;;;;;10.43;100.00;102807.88;10368229;28;20050;-78
2023/04/18 21:06:27;;;;;;;2.08;1.40;;;;;;;10.45;100.00;102806.28;10371400;28;20428;-78
2023/04/18 21:11:29;;;;;;;0.85;0.80;;;;;;;10.37;100.00;102815.25;10365081;28;20081;-79
2023/04/18 21:16:31;;;;;;;0.17;0.17;;;;;;;10.28;100.00;102824.97;10355656;28;20121;-78
2023/04/18 21:21:33;;;;;;;2.83;0.73;;;;;;;10.37;100.00;102822.06;10345128;28;20058;-77
2023/04/18 21:26:35;;;;;;;0.15;0.15;;;;;;;10.38;100.00;102822.19;10363422;28;20046;-78
2023/04/18 21:31:36;;;;;;;0.52;0.40;;;;;;;10.44;100.00;102816.47;10364344;28;20471;-79
2023/04/18 21:36:38;;;;;;;0.60;0.40;;;;;;;10.46;100.00;102814.88;10352195;28;20052;-79
2023/04/18 21:41:40;;;;;;;1.00;0.55;;;;;;;10.31;100.00;102815.75;10373938;28;20519;-78
2023/04/18 21:46:42;;;;;;;0.20;0.20;;;;;;;10.04;100.00;102827.91;10327508;28;20073;-78
2023/04/18 21:51:44;;;;;;;1.27;0.75;;;;;;;9.92;100.00;102816.88;10334256;28;20080;-78
2023/04/18 21:56:45;;;;;;;1.40;0.57;;;;;;;9.92;100.00;102815.19;10352543;28;20130;-77
2023/04/18 22:01:47;;;;;;;0.80;0.70;;;;;;;10.06;100.00;102818.59;10374712;28;20047;-78
2023/04/18 22:06:48;;;;;;;1.35;0.82;;;;;;;10.22;100.00;102814.34;10374964;28;20051;-78
2023/04/18 22:11:50;;;;;;;0.45;0.40;;;;;;;10.14;100.00;102809.63;10360409;28;20045;-76
2023/04/18 22:16:52;;;;;;;0.80;0.70;;;;;;;10.07;100.00;102802.34;10364203;28;20046;-77
2023/04/18 22:21:54;;;;;;;0.30;0.30;;;;;;;10.08;100.00;102801.53;10378231;28;20053;-79
2023/04/18 22:26:56;;;;;;;0.55;0.25;;;;;;;10.30;100.00;102803.66;10394786;28;20072;-78
2023/04/18 22:31:57;;;;;;;0.63;0.40;;;;;;;10.69;100.00;102812.72;10356107;28;20066;-78
2023/04/18 22:36:59;;;;;;;0.35;0.28;;;;;;;10.66;100.00;102808.28;10376139;28;20046;-78
2023/04/18 22:42:01;;;;;;;1.17;0.95;;;;;;;10.60;100.00;102807.94;10359789;28;20050;-79
2023/04/18 22:47:03;;;;;;;0.50;0.47;;;;;;;10.46;100.00;102810.59;10384294;28;20500;-77
2023/04/18 22:52:05;;;;;;;0.50;0.50;;;;;;;10.66;100.00;102816.00;10360237;28;20842;-79
2023/04/18 22:57:06;;;;;;;0.85;0.75;;;;;;;10.66;100.00;102813.44;10353383;28;20053;-77
2023/04/18 23:02:09;;;;;;;0.98;0.45;;;;;;;10.65;100.00;102819.38;10376231;28;20423;-79